KBKE

Baker City Municipal Airport

Baker City, Oregon, USA
KBKE 180533Z 1806/1906 VRB03KT P6SM SKC
Issued Valid From Valid To
Oct-18 @ 05:33 UTC
(6 hours ago)
Oct-18 @ 06:00 UTC
(6 hours ago)
Oct-19 @ 06:00 UTC
(in 18 hours)
Oct-18 @ 06:00 to Oct-19 @ 06:00
KBKE 180533Z 1806/1906 VRB03KT P6SM SKC
Wind Visibility Clouds
Variable at 3 knots Greater than 6 miles
  • Clear skies
KBKE 180533Z 1806/1906 VRB03KT P6SM SKC
Issued Oct-18 @ 05:33 UTC
(6 hours ago)
Valid From Oct-18 @ 06:00 UTC
(6 hours ago)
Valid To Oct-19 @ 06:00 UTC
(in 18 hours)
Oct-18 @ 06:00 - Oct-19 @ 06:00
Wind Visibility
Variable at 3 knots Greater than 6 miles
Clouds
  • Clear skies